• Join FlightAware (Why Join?)
  • Login
  • US Flag 
04:28AM EST


 

Airport Tracker/Info


-or-


 

Live Flight TrackerFlight Track Log ✈ EJA583 ✈ 16-Sep-2013 ✈ KPHL - KIZG

Flight Track Log - Related Links

Times and Time Zones

All times are in EDT time to prevent confusion due to time zone crossing. See the EJA583 flight status page for this flight to view local times or setup timezone preferences in your user account.

Time Position Orientation Groundspeed Altitude Reporting Facility
EDT Latitude Longitude Course Direction KTS MPH feet Rate Location/Type
11:15AM 39.8667 -75.2667 218° Southwest 161 185 1,000  Level Philadelphia TRACON
11:16AM 39.8167 -75.3167 218° Southwest 239 275 3,700 3,060 Climbing Philadelphia TRACON
11:17AM 39.7500 -75.3667 210° Southwest 249 287 7,500 3,060 Climbing Philadelphia TRACON
11:18AM 39.7000 -75.3000 134° Southeast 327 376 10,200 1,620 Climbing Philadelphia TRACON
11:20AM 39.7300 -75.0925 79° East 355 409 12,000 660 Climbing New York Center
11:21AM 39.7511 -74.9694 77° East 355 409 12,000 480 Level New York Center
11:22AM 39.7703 -74.8411 79° East 355 409 13,000 1,500 Climbing New York Center
11:23AM 39.7928 -74.7317 75° East 355 409 15,100 2,100 Climbing New York Center
11:24AM 39.8033 -74.6050 84° East 350 403 17,300 2,040 Climbing New York Center
11:25AM 39.8136 -74.4758 84° East 350 403 19,200 1,500 Climbing New York Center
11:26AM 39.8200 -74.3383 86° East 362 417 20,300 1,020 Climbing New York Center
11:27AM 39.9183 -74.1336 58° Northeast 414 476 21,900 960 Climbing Boston Center
11:28AM 39.9889 -74.0081 54° Northeast 420 483 22,900 540 Climbing Boston Center
11:29AM 40.0636 -73.8714 54° Northeast 441 507 23,000  Climbing Boston Center
11:30AM 40.1422 -73.7375 52° Northeast 456 525 23,000 480 Level Boston Center
11:31AM 40.2147 -73.6003 55° Northeast 462 532 24,000 1,320 Climbing Boston Center
11:32AM 40.2931 -73.4658 53° Northeast 462 532 25,700 1,620 Climbing Boston Center
11:33AM 40.3631 -73.3333 55° Northeast 455 524 27,400 1,560 Climbing Boston Center
11:34AM 40.4492 -73.2172 46° Northeast 449 517 28,800 1,440 Climbing Boston Center
11:35AM 40.5581 -73.1447 27° Northeast 432 497 30,300 1,380 Climbing Boston Center
11:36AM 40.6708 -73.0803 23° Northeast 432 497 31,700 1,320 Climbing Boston Center
11:37AM 40.7839 -73.0158 23° Northeast 432 497 33,000 1,260 Climbing Boston Center
11:38AM 40.8989 -72.9481 24° Northeast 438 504 34,300 1,380 Climbing Boston Center
11:39AM 41.0136 -72.8803 24° Northeast 443 510 35,800 1,200 Climbing Boston Center
11:40AM 41.1286 -72.8067 26° Northeast 443 510 36,700 600 Climbing Boston Center
11:41AM 41.2475 -72.7328 25° Northeast 449 517 37,000 120 Climbing Boston Center
11:42AM 41.3728 -72.6531 26° Northeast 470 541 37,000  Level Boston Center
11:43AM 41.4917 -72.5786 25° Northeast 470 541 37,000  Level Boston Center
11:44AM 41.6125 -72.5039 25° Northeast 470 541 37,000  Level Boston Center
11:45AM 41.7356 -72.4289 24° Northeast 470 541 37,000  Level Boston Center
11:46AM 41.8564 -72.3508 26° Northeast 470 541 37,000  Level Boston Center
11:47AM 41.9772 -72.2725 26° Northeast 475 547 37,000 -660 Level Boston Center
11:48AM 42.1000 -72.1967 25° Northeast 475 547 35,700 -2,100 Descending Boston Center
11:49AM 42.2208 -72.1206 25° Northeast 475 547 32,800 -3,360 Descending Boston Center
11:50AM 42.3581 -72.0300 26° Northeast 481 554 29,200 -3,180 Descending Boston Center
11:51AM 42.4786 -71.9531 25° Northeast 481 554 26,600 -2,340 Descending Boston Center
11:52AM 42.6011 -71.8731 26° Northeast 481 554 24,600 -2,040 Descending Boston Center
11:53AM 42.7236 -71.7958 25° Northeast 481 554 22,600 -2,040 Descending Boston Center
11:54AM 42.8400 -71.7208 25° Northeast 475 547 20,600 -2,040 Descending Boston Center
11:55AM 42.9458 -71.6517 26° Northeast 436 502 18,600 -1,860 Descending Boston Center
11:56AM 43.0433 -71.5878 26° Northeast 396 456 16,900 -1,800 Descending Boston Center
11:57AM 43.1303 -71.5297 26° Northeast 378 435 15,100 -2,100 Descending Boston Center
11:58AM 43.2258 -71.4656 26° Northeast 357 411 12,900 -1,800 Descending Boston Center
11:59AM 43.2942 -71.4189 26° Northeast 320 368 11,500 -960 Descending Boston Center
12:00PM 43.3811 -71.3631 25° Northeast 308 354 11,000 -300 Descending Boston Center
12:01PM 43.4517 -71.3306 18° North 294 338 11,000  Level Boston Center
12:02PM 43.5219 -71.2861 25° Northeast 281 323 11,000  Level Boston Center
12:03PM 43.6069 -71.2272 27° Northeast 296 341 11,000 -360 Level Boston Center
12:04PM 43.6833 -71.1711 28° Northeast 303 349 10,300 -1,260 Descending Boston Center
12:05PM 43.7494 -71.1267 26° Northeast 269 310 8,600 -1,920 Descending Boston Center
12:06PM 43.8136 -71.0792 28° Northeast 254 292 6,400 -2,340 Descending Boston Center
12:07PM 43.8692 -71.0203 37° Northeast 249 287 3,900 -1,380 Descending Boston Center
12:08PM 43.9206 -70.9758 32° Northeast 249 287 3,700 3,540 Descending Boston Center
12:09PM 43.9764 -70.9256 33° Northeast 249 287 11,000 3,600 Climbing Boston Center
12:10PM 44.0339 -70.8719 34° Northeast 249 287 11,000  Level Boston Center
12:11PM 44.0894 -70.8214 33° Northeast 249 287 11,000  Level Boston Center
12:12PM 44.1019 -70.8094 34° Northeast 249 287 11,000  Level Boston Center
12:13PM 44.1019 -70.8094 324° Northwest 249 287 11,000  Level Boston Center
12:15PM 44.1019 -70.8094 324° Northwest 249 287 11,000  Level Boston Center
12:17PM 44.0075 -70.9081 217° Southwest  Level FlightAware Approximate
12:24PM 43.9833 -70.9333 219° Southwest  Level FlightAware Approximate
12:25PM 43.9911 -70.9479 219° Southwest  Level Estimated